createdAt,value
2023-05-21T00:04:08.852Z,97057.47
2023-05-21T00:09:30.176Z,97051.09
2023-05-21T00:14:51.375Z,97056.03
2023-05-21T00:20:14.045Z,97051.75
2023-05-21T00:25:35.386Z,97040.28
2023-05-21T00:30:56.646Z,97033.66
2023-05-21T00:36:17.910Z,97039.44
2023-05-21T00:41:40.465Z,97038.63
2023-05-21T00:47:02.763Z,97035.72
2023-05-21T00:52:27.182Z,97041.63
2023-05-21T00:57:49.749Z,97039.50
2023-05-21T01:03:12.772Z,97030.28
2023-05-21T01:08:36.374Z,97027.84
2023-05-21T01:13:57.693Z,97027.31
2023-05-21T01:19:24.651Z,97018.78
2023-05-21T01:24:47.810Z,97016.34
2023-05-21T01:30:09.342Z,97011.72
2023-05-21T01:35:41.966Z,97015.34
2023-05-21T01:41:08.145Z,96993.84
2023-05-21T01:46:33.475Z,96995.31
2023-05-21T01:51:55.506Z,97006.34
2023-05-21T01:57:17.366Z,97004.53
2023-05-21T02:02:38.266Z,97008.00
2023-05-21T02:08:00.200Z,97003.19
2023-05-21T02:13:25.165Z,97001.56
2023-05-21T02:18:48.479Z,97006.00
2023-05-21T02:24:09.502Z,97006.00
2023-05-21T02:29:30.445Z,97008.16
2023-05-21T02:34:51.966Z,97009.13
2023-05-21T02:40:13.649Z,97015.50
2023-05-21T02:45:35.763Z,97007.81
2023-05-21T02:50:57.468Z,97005.34
2023-05-21T02:56:18.752Z,97005.50
2023-05-21T03:01:41.528Z,97005.50
2023-05-21T03:07:03.665Z,96993.69
2023-05-21T03:12:25.306Z,96998.13
2023-05-21T03:17:46.159Z,96990.56
2023-05-21T03:23:06.828Z,96989.44
2023-05-21T03:28:27.645Z,96994.03
2023-05-21T03:33:48.452Z,96996.66
2023-05-21T03:39:17.631Z,96991.22
2023-05-21T03:44:38.886Z,96990.22
2023-05-21T03:50:37.873Z,96989.75
2023-05-21T03:55:59.564Z,96991.22
2023-05-21T04:01:20.951Z,96994.03
2023-05-21T04:06:44.443Z,96997.13
2023-05-21T04:12:07.985Z,96993.50
2023-05-21T04:17:30.965Z,96998.22
2023-05-21T04:22:52.195Z,96991.28
2023-05-21T04:28:13.047Z,96994.88
2023-05-21T04:33:35.904Z,96990.16
2023-05-21T04:38:56.936Z,96991.38
2023-05-21T04:44:18.460Z,96990.81
2023-05-21T04:49:41.291Z,96996.28
2023-05-21T04:55:03.021Z,96994.81
2023-05-21T05:00:26.232Z,96989.19
2023-05-21T05:05:48.038Z,97001.09
2023-05-21T05:11:09.249Z,96996.66
2023-05-21T05:16:30.315Z,96998.47
2023-05-21T05:21:51.550Z,96989.22
2023-05-21T05:27:12.798Z,96988.38
2023-05-21T05:32:33.685Z,96985.97
2023-05-21T05:37:55.339Z,96982.25
2023-05-21T05:43:16.677Z,96975.84
2023-05-21T05:48:38.253Z,96984.84
2023-05-21T05:54:00.376Z,96976.00
2023-05-21T05:59:21.386Z,96986.91
2023-05-21T06:04:44.617Z,96984.84
2023-05-21T06:10:09.345Z,96986.44
2023-05-21T06:15:30.498Z,96991.63
2023-05-21T06:20:52.055Z,96982.97
2023-05-21T06:26:14.786Z,96982.03
2023-05-21T06:31:36.071Z,96973.50
2023-05-21T06:36:57.535Z,96974.28
2023-05-21T06:42:18.914Z,96984.50
2023-05-21T06:48:20.635Z,96974.94
2023-05-21T06:53:43.065Z,96974.94
2023-05-21T06:59:04.073Z,96980.66
2023-05-21T07:04:25.074Z,96985.72
2023-05-21T07:09:45.964Z,96982.59
2023-05-21T07:15:08.071Z,96974.59
2023-05-21T07:20:29.937Z,96979.88
2023-05-21T07:25:55.208Z,96976.31
2023-05-21T07:31:16.895Z,96977.97
2023-05-21T07:36:41.740Z,96980.06
2023-05-21T07:42:03.343Z,96976.09
2023-05-21T07:47:24.391Z,96980.22
2023-05-21T07:52:46.764Z,96980.34
2023-05-21T07:58:08.093Z,96974.47
2023-05-21T08:03:31.094Z,96972.19
2023-05-21T08:08:52.444Z,96974.19
2023-05-21T08:14:14.020Z,96972.91
2023-05-21T08:19:35.732Z,96977.63
2023-05-21T08:24:56.808Z,96972.63
2023-05-21T08:30:18.491Z,96974.84
2023-05-21T08:35:39.950Z,96978.25
2023-05-21T08:41:12.379Z,96963.34
2023-05-21T08:46:34.965Z,96972.41
2023-05-21T08:51:56.590Z,96971.75
2023-05-21T08:57:20.182Z,96963.66
2023-05-21T09:02:44.033Z,96966.28
2023-05-21T09:08:18.221Z,96969.75
2023-05-21T09:13:51.877Z,96975.22
2023-05-21T09:19:23.150Z,96962.63
2023-05-21T09:24:45.009Z,96961.78
2023-05-21T09:30:11.776Z,96969.84
2023-05-21T09:35:34.516Z,96976.06
2023-05-21T09:40:57.290Z,96970.47
2023-05-21T09:46:21.843Z,96971.22
2023-05-21T09:51:44.053Z,96964.75
2023-05-21T09:57:05.023Z,96964.25
2023-05-21T10:02:29.005Z,96968.81
2023-05-21T10:07:51.682Z,96971.28
2023-05-21T10:13:14.929Z,96968.81
2023-05-21T10:18:38.002Z,96962.91
2023-05-21T10:23:59.737Z,96965.44
2023-05-21T10:29:23.211Z,96955.88
2023-05-21T10:34:44.441Z,96942.34
2023-05-21T10:40:06.273Z,96942.31
2023-05-21T10:45:43.055Z,96939.28
2023-05-21T10:51:25.203Z,96931.97
2023-05-21T10:56:57.131Z,96930.28
2023-05-21T11:02:22.605Z,96938.00
2023-05-21T11:08:01.159Z,96934.97
2023-05-21T11:13:25.349Z,96930.38
2023-05-21T11:18:46.389Z,96930.59
2023-05-21T11:24:08.837Z,96930.91
2023-05-21T11:29:40.703Z,96922.22
2023-05-21T11:35:02.456Z,96927.34
2023-05-21T11:40:30.204Z,96920.91
2023-05-21T11:45:53.408Z,96920.69
2023-05-21T11:51:14.357Z,96920.44
2023-05-21T11:56:36.864Z,96906.47
2023-05-21T12:01:59.354Z,96912.38
2023-05-21T12:07:21.064Z,96909.06
2023-05-21T12:12:54.063Z,96916.16
2023-05-21T12:18:16.867Z,96913.44
2023-05-21T12:23:37.927Z,96907.69
2023-05-21T12:28:59.060Z,96900.47
2023-05-21T12:34:39.131Z,96897.75
2023-05-21T12:40:01.516Z,96900.69
2023-05-21T12:45:22.850Z,96895.00
2023-05-21T12:50:44.133Z,96897.44
2023-05-21T12:56:10.330Z,96897.38
2023-05-21T13:01:31.456Z,96886.63
2023-05-21T13:06:52.871Z,96880.59
2023-05-21T13:12:14.413Z,96874.72
2023-05-21T13:17:35.659Z,96883.34
2023-05-21T13:22:56.884Z,96881.59
2023-05-21T13:28:18.008Z,96874.19
2023-05-21T13:33:38.992Z,96870.78
2023-05-21T13:39:00.175Z,96860.34
2023-05-21T13:44:21.179Z,96861.63
2023-05-21T13:49:42.917Z,96865.31
2023-05-21T13:55:04.774Z,96859.47
2023-05-21T14:00:25.658Z,96847.63
2023-05-21T14:05:48.456Z,96847.16
2023-05-21T14:11:09.630Z,96859.31
2023-05-21T14:16:30.756Z,96860.25
2023-05-21T14:21:52.900Z,96859.22
2023-05-21T14:27:15.407Z,96857.72
2023-05-21T14:32:36.414Z,96863.97
2023-05-21T14:37:57.261Z,96853.41
2023-05-21T14:43:18.017Z,96850.41
2023-05-21T14:48:39.916Z,96841.72
2023-05-21T14:54:00.968Z,96843.19
2023-05-21T14:59:21.714Z,96849.91
2023-05-21T15:04:42.525Z,96842.84
2023-05-21T15:10:03.166Z,96843.88
2023-05-21T15:15:24.056Z,96852.00
2023-05-21T15:20:45.091Z,96842.25
2023-05-21T15:26:06.270Z,96840.47
2023-05-21T15:31:26.840Z,96846.84
2023-05-21T15:36:47.660Z,96843.59
2023-05-21T15:42:11.785Z,96833.16
2023-05-21T15:47:33.202Z,96828.19
2023-05-21T15:52:54.442Z,96817.97
2023-05-21T15:58:15.185Z,96821.91
2023-05-21T16:03:35.979Z,96819.50
2023-05-21T16:08:56.656Z,96818.56
2023-05-21T16:14:17.475Z,96813.75
2023-05-21T16:19:38.959Z,96808.59
2023-05-21T16:25:00.184Z,96818.72
2023-05-21T16:30:21.217Z,96816.34
2023-05-21T16:35:42.070Z,96817.28
2023-05-21T16:41:05.588Z,96815.25
2023-05-21T16:46:26.626Z,96821.84
2023-05-21T16:51:47.978Z,96823.56
2023-05-21T16:57:09.099Z,96827.31
2023-05-21T17:02:30.766Z,96833.75
2023-05-21T17:07:51.987Z,96829.09
2023-05-21T17:13:21.613Z,96825.06
2023-05-21T17:18:43.840Z,96825.31
2023-05-21T17:24:05.223Z,96832.13
2023-05-21T17:29:26.230Z,96835.25
2023-05-21T17:34:47.374Z,96836.19
2023-05-21T17:40:08.945Z,96842.16
2023-05-21T17:45:30.497Z,96850.31
2023-05-21T17:50:51.502Z,96840.34
2023-05-21T17:56:12.594Z,96839.78
2023-05-21T18:01:35.474Z,96847.63
2023-05-21T18:06:56.633Z,96851.97
2023-05-21T18:12:17.782Z,96845.66
2023-05-21T18:17:39.384Z,96845.53
2023-05-21T18:23:00.847Z,96840.81
2023-05-21T18:28:21.845Z,96841.47
2023-05-21T18:33:42.898Z,96835.16
2023-05-21T18:39:04.923Z,96830.69
2023-05-21T18:44:26.313Z,96840.13
2023-05-21T18:49:47.294Z,96844.59
2023-05-21T18:55:08.730Z,96853.97
2023-05-21T19:00:29.698Z,96856.41
2023-05-21T19:05:50.744Z,96857.63
2023-05-21T19:11:12.292Z,96859.63
2023-05-21T19:16:33.793Z,96865.31
2023-05-21T19:21:54.863Z,96870.22
2023-05-21T19:27:16.471Z,96868.97
2023-05-21T19:32:37.633Z,96868.78
2023-05-21T19:38:03.290Z,96864.03
2023-05-21T19:43:25.877Z,96867.88
2023-05-21T19:48:46.813Z,96861.97
2023-05-21T19:54:07.994Z,96871.09
2023-05-21T19:59:29.218Z,96867.59
2023-05-21T20:04:50.818Z,96869.56
2023-05-21T20:10:11.863Z,96876.28
2023-05-21T20:15:32.976Z,96877.66
2023-05-21T20:20:55.090Z,96894.72
2023-05-21T20:26:16.784Z,96886.97
2023-05-21T20:31:37.941Z,96889.38
2023-05-21T20:36:59.156Z,96888.13
2023-05-21T20:42:21.376Z,96891.78
2023-05-21T20:47:43.619Z,96891.53
2023-05-21T20:53:04.472Z,96883.22
2023-05-21T20:58:25.719Z,96897.72
2023-05-21T21:03:48.292Z,96894.91
2023-05-21T21:09:09.285Z,96894.50
2023-05-21T21:14:31.499Z,96894.06
2023-05-21T21:19:52.943Z,96888.69
2023-05-21T21:25:14.048Z,96881.16
2023-05-21T21:30:35.217Z,96879.91
2023-05-21T21:35:56.611Z,96885.94
2023-05-21T21:41:17.930Z,96885.19
2023-05-21T21:46:39.170Z,96880.28
2023-05-21T21:51:59.960Z,96884.56
2023-05-21T21:57:21.670Z,96880.66
2023-05-21T22:02:48.619Z,96883.50
2023-05-21T22:08:09.837Z,96884.66
2023-05-21T22:13:30.499Z,96888.03
2023-05-21T22:18:51.355Z,96888.41
2023-05-21T22:24:30.351Z,96891.88
2023-05-21T22:29:51.436Z,96891.63
2023-05-21T22:35:12.677Z,96890.41
2023-05-21T22:40:33.411Z,96885.13
2023-05-21T22:45:54.408Z,96880.91
2023-05-21T22:51:15.431Z,96880.78
2023-05-21T22:56:37.016Z,96886.66
2023-05-21T23:01:58.280Z,96882.81
2023-05-21T23:07:19.597Z,96876.31
2023-05-21T23:12:41.579Z,96877.75
2023-05-21T23:18:04.055Z,96877.38
2023-05-21T23:23:25.200Z,96861.66
2023-05-21T23:28:46.128Z,96857.13
2023-05-21T23:34:07.159Z,96861.03
2023-05-21T23:39:31.049Z,96860.59
2023-05-21T23:44:52.079Z,96861.31
2023-05-21T23:50:13.465Z,96857.25
2023-05-21T23:55:34.097Z,96855.59
